Time;durP1;ratioP1;P1;durP2;ratioP2;P2;SDS_P1;SDS_P2;PMS_P1;PMS_P2;Temp;Humidity;BMP_temperature;BMP_pressure;BME280_temperature;BME280_humidity;BME280_pressure;Samples;Min_cycle;Max_cycle;Signal;HPM_P1;HPM_P2
2021/09/18 00:00:09;;;;;;;;;;;14.20;99.90;;;;;;1930281;74;20112;-71
2021/09/18 00:02:37;;;;;;;;;;;14.10;99.90;;;;;;1930014;74;20196;-70
2021/09/18 00:05:04;;;;;;;;;;;14.10;99.90;;;;;;1927841;74;20201;-70
2021/09/18 00:07:31;;;;;;;;;;;14.10;99.90;;;;;;1908907;75;20118;-70
2021/09/18 00:09:58;;;;;;;;;;;14.20;99.90;;;;;;1914552;74;20470;-70
2021/09/18 00:12:25;;;;;;;;;;;14.20;99.90;;;;;;1911422;74;20170;-70
2021/09/18 00:14:52;;;;;;;;;;;14.20;99.90;;;;;;1893388;75;20389;-69
2021/09/18 00:17:18;;;;;;;;;;;14.20;99.90;;;;;;1908654;74;20170;-71
2021/09/18 00:19:45;;;;;;;;;;;14.20;99.90;;;;;;1908716;75;20118;-71
2021/09/18 00:22:12;;;;;;;;;;;14.20;99.90;;;;;;1908778;75;20817;-71
2021/09/18 00:24:39;;;;;;;;;;;14.10;99.90;;;;;;1911209;74;20245;-70
2021/09/18 00:27:06;;;;;;;;;;;14.10;99.90;;;;;;1928997;74;20128;-70
2021/09/18 00:29:32;;;;;;;;;;;14.00;99.90;;;;;;1921005;74;20460;-71
2021/09/18 00:31:59;;;;;;;;;;;14.10;99.90;;;;;;1924387;74;20171;-71
2021/09/18 00:34:26;;;;;;;;;;;14.10;99.90;;;;;;1942144;74;20381;-71
2021/09/18 00:36:53;;;;;;;;;;;14.20;99.90;;;;;;1931421;74;20155;-71
2021/09/18 00:39:20;;;;;;;;;;;14.20;99.90;;;;;;1930088;74;20413;-71
2021/09/18 00:41:46;;;;;;;;;;;14.20;99.90;;;;;;1930078;74;20123;-70
2021/09/18 00:44:17;;;;;;;;;;;14.10;99.90;;;;;;1930102;74;20470;-70
2021/09/18 00:46:48;;;;;;;;;;;14.00;99.90;;;;;;1914264;74;20455;-70
2021/09/18 00:49:14;;;;;;;;;;;14.00;99.90;;;;;;1908599;75;20501;-71
2021/09/18 00:51:41;;;;;;;;;;;14.00;99.90;;;;;;1908557;75;20177;-70
2021/09/18 00:54:09;;;;;;;;;;;13.90;99.90;;;;;;1908597;75;20364;-70
2021/09/18 00:56:36;;;;;;;;;;;13.80;99.90;;;;;;1922640;74;20201;-70
2021/09/18 00:59:03;;;;;;;;;;;13.80;99.90;;;;;;1930183;74;20189;-70
2021/09/18 01:01:30;;;;;;;;;;;13.90;99.90;;;;;;1930221;74;20190;-71
2021/09/18 01:03:56;;;;;;;;;;;14.00;99.90;;;;;;1929896;74;20209;-71
2021/09/18 01:06:24;;;;;;;;;;;14.00;99.90;;;;;;1918034;74;20192;-71
2021/09/18 01:08:52;;;;;;;;;;;14.00;99.90;;;;;;1908388;75;20118;-71
2021/09/18 01:11:19;;;;;;;;;;;14.10;99.90;;;;;;1908061;75;20338;-71
2021/09/18 01:13:46;;;;;;;;;;;13.90;99.90;;;;;;1908763;75;20158;-71
2021/09/18 01:16:12;;;;;;;;;;;14.00;99.90;;;;;;1918775;74;20116;-70
2021/09/18 01:18:39;;;;;;;;;;;14.00;99.90;;;;;;1930327;73;20166;-70
2021/09/18 01:21:08;;;;;;;;;;;14.00;99.90;;;;;;1925450;74;20203;-70
2021/09/18 01:23:34;;;;;;;;;;;14.10;99.90;;;;;;1908609;75;20158;-70
2021/09/18 01:26:01;;;;;;;;;;;14.20;99.90;;;;;;1908256;75;20216;-70
2021/09/18 01:28:28;;;;;;;;;;;14.20;99.90;;;;;;1911955;74;20182;-70
2021/09/18 01:30:55;;;;;;;;;;;14.20;99.90;;;;;;1930176;74;20185;-70
2021/09/18 01:33:22;;;;;;;;;;;14.20;99.90;;;;;;1930092;74;20484;-70
2021/09/18 01:35:49;;;;;;;;;;;14.20;99.90;;;;;;1929889;74;20174;-70
2021/09/18 01:38:15;;;;;;;;;;;14.30;99.90;;;;;;1930083;74;20343;-71
2021/09/18 01:40:44;;;;;;;;;;;14.20;99.90;;;;;;1929273;74;20218;-71
2021/09/18 01:43:11;;;;;;;;;;;14.30;99.90;;;;;;1930242;74;20226;-70
2021/09/18 01:45:38;;;;;;;;;;;14.30;99.90;;;;;;1908661;74;20519;-70
2021/09/18 01:48:07;;;;;;;;;;;14.30;99.90;;;;;;1908507;75;20169;-71
2021/09/18 01:50:46;;;;;;;;;;;14.20;99.90;;;;;;1927518;74;20154;-71
2021/09/18 01:53:14;;;;;;;;;;;14.10;99.90;;;;;;1929809;74;20158;-70
2021/09/18 01:55:41;;;;;;;;;;;14.20;99.90;;;;;;1926465;73;20302;-71
2021/09/18 01:58:07;;;;;;;;;;;14.10;99.90;;;;;;1929988;73;20166;-70
2021/09/18 02:00:42;;;;;;;;;;;14.20;99.90;;;;;;1939852;74;20120;-70
2021/09/18 02:03:09;;;;;;;;;;;14.10;99.90;;;;;;1921569;74;20209;-70
2021/09/18 02:05:36;;;;;;;;;;;14.00;99.90;;;;;;1929969;74;20436;-70
2021/09/18 02:08:03;;;;;;;;;;;14.00;99.90;;;;;;1930102;74;20230;-70
2021/09/18 02:10:31;;;;;;;;;;;13.90;99.90;;;;;;1929375;74;20143;-71
2021/09/18 02:13:01;;;;;;;;;;;13.90;99.90;;;;;;1929799;74;20186;-70
2021/09/18 02:15:28;;;;;;;;;;;13.70;99.90;;;;;;1929948;73;20424;-70
2021/09/18 02:17:55;;;;;;;;;;;13.80;99.90;;;;;;1925050;74;20153;-70
2021/09/18 02:20:23;;;;;;;;;;;13.80;99.90;;;;;;1928379;74;20256;-70
2021/09/18 02:22:50;;;;;;;;;;;13.80;99.90;;;;;;1929813;73;20181;-70
2021/09/18 02:25:17;;;;;;;;;;;13.90;99.90;;;;;;1929927;74;20178;-70
2021/09/18 02:27:44;;;;;;;;;;;13.80;99.90;;;;;;1929946;74;20167;-71
2021/09/18 02:30:13;;;;;;;;;;;13.80;99.90;;;;;;1928424;73;20457;-71
2021/09/18 02:32:40;;;;;;;;;;;13.80;99.90;;;;;;1930250;74;20159;-71
2021/09/18 02:35:08;;;;;;;;;;;13.70;99.90;;;;;;1929774;74;20123;-71
2021/09/18 02:37:35;;;;;;;;;;;13.80;99.90;;;;;;1917004;74;20122;-70
2021/09/18 02:40:04;;;;;;;;;;;13.70;99.90;;;;;;1908575;75;20939;-70
2021/09/18 02:42:31;;;;;;;;;;;13.80;99.90;;;;;;1908394;75;20197;-70
2021/09/18 02:44:58;;;;;;;;;;;13.90;99.90;;;;;;1908579;75;20213;-70
2021/09/18 02:47:25;;;;;;;;;;;13.90;99.90;;;;;;1926419;74;20448;-70
2021/09/18 02:49:52;;;;;;;;;;;13.90;99.90;;;;;;1932914;74;20153;-70
2021/09/18 02:52:18;;;;;;;;;;;13.90;99.90;;;;;;1908632;75;20157;-71
2021/09/18 02:54:45;;;;;;;;;;;13.80;99.90;;;;;;1908387;75;20106;-71
2021/09/18 02:57:12;;;;;;;;;;;13.80;99.90;;;;;;1908650;75;20154;-71
2021/09/18 02:59:39;;;;;;;;;;;13.80;99.90;;;;;;1908720;74;20455;-71
2021/09/18 03:02:06;;;;;;;;;;;13.80;99.90;;;;;;1912097;75;20253;-71
2021/09/18 03:04:33;;;;;;;;;;;13.70;99.90;;;;;;1912110;75;20478;-71
2021/09/18 03:07:00;;;;;;;;;;;13.70;99.90;;;;;;1926311;74;20409;-71
2021/09/18 03:09:27;;;;;;;;;;;13.70;99.90;;;;;;1929538;74;20171;-71
2021/09/18 03:11:54;;;;;;;;;;;13.80;99.90;;;;;;1908601;75;20194;-71
2021/09/18 03:14:20;;;;;;;;;;;13.80;99.90;;;;;;1908751;75;20185;-70
2021/09/18 03:16:48;;;;;;;;;;;13.80;99.90;;;;;;1908419;75;20189;-71
2021/09/18 03:19:15;;;;;;;;;;;13.70;99.90;;;;;;1908692;75;20165;-71
2021/09/18 03:21:41;;;;;;;;;;;13.70;99.90;;;;;;1940615;73;20116;-70
2021/09/18 03:24:08;;;;;;;;;;;13.60;99.90;;;;;;1942520;73;20878;-70
2021/09/18 03:26:35;;;;;;;;;;;13.60;99.90;;;;;;1942413;74;20171;-70
2021/09/18 03:29:03;;;;;;;;;;;13.70;99.90;;;;;;1942091;73;20116;-70
2021/09/18 03:31:30;;;;;;;;;;;13.70;99.90;;;;;;1913784;74;20177;-70
2021/09/18 03:33:57;;;;;;;;;;;13.50;99.90;;;;;;1908751;75;20188;-71
2021/09/18 03:36:24;;;;;;;;;;;13.40;99.90;;;;;;1908520;75;20212;-71
2021/09/18 03:38:51;;;;;;;;;;;13.40;99.90;;;;;;1908759;75;20206;-71
2021/09/18 03:41:18;;;;;;;;;;;13.50;99.90;;;;;;1925162;74;20484;-71
2021/09/18 03:43:45;;;;;;;;;;;13.40;99.90;;;;;;1926903;74;20119;-71
2021/09/18 03:46:11;;;;;;;;;;;13.40;99.90;;;;;;1914630;74;20177;-71
2021/09/18 03:48:38;;;;;;;;;;;13.50;99.90;;;;;;1908734;75;20215;-71
2021/09/18 03:51:05;;;;;;;;;;;13.40;99.90;;;;;;1910443;74;20256;-70
2021/09/18 03:53:33;;;;;;;;;;;13.40;99.90;;;;;;1910156;74;20511;-71
2021/09/18 03:56:00;;;;;;;;;;;13.40;99.90;;;;;;1908573;75;20173;-70
2021/09/18 03:58:26;;;;;;;;;;;13.40;99.90;;;;;;1908858;75;20126;-71
2021/09/18 04:00:54;;;;;;;;;;;13.50;99.90;;;;;;1909507;74;20174;-70
2021/09/18 04:03:20;;;;;;;;;;;13.60;99.90;;;;;;1908702;75;20174;-70
2021/09/18 04:05:47;;;;;;;;;;;13.70;99.90;;;;;;1911732;74;20126;-70
2021/09/18 04:08:14;;;;;;;;;;;13.80;99.90;;;;;;1908549;75;20256;-71
2021/09/18 04:10:41;;;;;;;;;;;13.70;99.90;;;;;;1908958;74;20220;-71
2021/09/18 04:13:07;;;;;;;;;;;13.70;99.90;;;;;;1908536;75;20203;-70
2021/09/18 04:15:34;;;;;;;;;;;13.70;99.90;;;;;;1908683;75;20187;-70
2021/09/18 04:18:01;;;;;;;;;;;13.80;99.90;;;;;;1908772;75;20446;-71
2021/09/18 04:20:28;;;;;;;;;;;13.80;99.90;;;;;;1916335;74;20282;-70
2021/09/18 04:22:55;;;;;;;;;;;13.80;99.90;;;;;;1921029;74;20196;-71
2021/09/18 04:25:22;;;;;;;;;;;13.80;99.90;;;;;;1908489;74;20152;-70
2021/09/18 04:27:49;;;;;;;;;;;13.80;99.90;;;;;;1908719;75;20159;-71
2021/09/18 04:30:15;;;;;;;;;;;13.80;99.90;;;;;;1909053;74;20455;-71
2021/09/18 04:32:42;;;;;;;;;;;13.80;99.90;;;;;;1908674;75;20173;-71
2021/09/18 04:35:09;;;;;;;;;;;13.90;99.90;;;;;;1908945;75;20213;-72
2021/09/18 04:37:36;;;;;;;;;;;13.80;99.90;;;;;;1908872;75;20107;-71
2021/09/18 04:40:03;;;;;;;;;;;13.80;99.90;;;;;;1912106;74;20186;-71
2021/09/18 04:42:30;;;;;;;;;;;13.90;99.90;;;;;;1930104;73;20127;-71
2021/09/18 04:44:56;;;;;;;;;;;13.90;99.90;;;;;;1929752;74;20200;-70
2021/09/18 04:47:23;;;;;;;;;;;13.90;99.90;;;;;;1929968;74;20166;-70
2021/09/18 04:49:50;;;;;;;;;;;13.90;99.90;;;;;;1928474;74;20154;-70
2021/09/18 04:52:17;;;;;;;;;;;13.90;99.90;;;;;;1908669;75;20211;-71
2021/09/18 04:54:43;;;;;;;;;;;13.90;99.90;;;;;;1908646;75;20255;-70
2021/09/18 04:57:10;;;;;;;;;;;13.90;99.90;;;;;;1908924;74;20134;-70
2021/09/18 04:59:37;;;;;;;;;;;13.90;99.90;;;;;;1908846;75;20162;-70
2021/09/18 05:02:04;;;;;;;;;;;13.90;99.90;;;;;;1941348;74;20148;-70
2021/09/18 05:04:31;;;;;;;;;;;13.90;99.90;;;;;;1942181;74;20187;-70
2021/09/18 05:06:58;;;;;;;;;;;13.90;99.90;;;;;;1942207;74;20253;-70
2021/09/18 05:09:24;;;;;;;;;;;13.90;99.90;;;;;;1942217;74;20162;-70
2021/09/18 05:11:51;;;;;;;;;;;13.90;99.90;;;;;;1912652;74;20269;-70
2021/09/18 05:14:18;;;;;;;;;;;14.00;99.90;;;;;;1908754;75;20181;-70
2021/09/18 05:16:45;;;;;;;;;;;14.00;99.90;;;;;;1908743;75;20122;-70
2021/09/18 05:19:11;;;;;;;;;;;14.00;99.90;;;;;;1908460;75;20525;-70
2021/09/18 05:21:39;;;;;;;;;;;14.00;99.90;;;;;;1934348;74;20194;-70
2021/09/18 05:24:06;;;;;;;;;;;14.00;99.90;;;;;;1942290;74;20152;-72
2021/09/18 05:26:33;;;;;;;;;;;14.00;99.90;;;;;;1942368;74;20113;-71
2021/09/18 05:29:00;;;;;;;;;;;14.00;99.90;;;;;;1942173;74;20175;-70
2021/09/18 05:31:26;;;;;;;;;;;14.00;99.90;;;;;;1919129;74;20157;-70
2021/09/18 05:33:53;;;;;;;;;;;14.10;99.90;;;;;;1908706;75;20388;-70
2021/09/18 05:36:21;;;;;;;;;;;14.10;99.90;;;;;;1908433;75;20177;-70
2021/09/18 05:38:48;;;;;;;;;;;14.00;99.90;;;;;;1908651;75;20181;-70
2021/09/18 05:41:15;;;;;;;;;;;14.10;99.90;;;;;;1928227;74;20104;-70
2021/09/18 05:43:42;;;;;;;;;;;14.00;99.90;;;;;;1942351;73;20488;-69
2021/09/18 05:46:09;;;;;;;;;;;14.00;99.90;;;;;;1929075;74;20159;-70
2021/09/18 05:48:35;;;;;;;;;;;14.00;99.90;;;;;;1930108;74;20354;-70
2021/09/18 05:51:02;;;;;;;;;;;14.10;99.90;;;;;;1920815;73;20189;-70
2021/09/18 05:53:29;;;;;;;;;;;14.10;99.90;;;;;;1908725;75;20277;-70
2021/09/18 05:55:56;;;;;;;;;;;14.10;99.90;;;;;;1908279;75;20251;-71
2021/09/18 05:58:23;;;;;;;;;;;14.10;99.90;;;;;;1913560;74;20218;-70
2021/09/18 06:00:49;;;;;;;;;;;14.10;99.90;;;;;;1912811;74;20473;-70
2021/09/18 06:03:16;;;;;;;;;;;14.10;99.90;;;;;;1908357;75;20122;-71
2021/09/18 06:05:43;;;;;;;;;;;14.20;99.90;;;;;;1908546;75;20278;-69
2021/09/18 06:08:10;;;;;;;;;;;14.10;99.90;;;;;;1908653;74;20107;-70
2021/09/18 06:10:37;;;;;;;;;;;14.10;99.90;;;;;;1909168;74;20212;-69
2021/09/18 06:13:04;;;;;;;;;;;14.10;99.90;;;;;;1908905;75;20276;-70
2021/09/18 06:15:30;;;;;;;;;;;14.10;99.90;;;;;;1908281;75;20193;-69
2021/09/18 06:17:57;;;;;;;;;;;14.20;99.90;;;;;;1908872;75;20169;-70
2021/09/18 06:20:24;;;;;;;;;;;14.20;99.90;;;;;;1911769;74;20214;-70
2021/09/18 06:22:51;;;;;;;;;;;14.20;99.90;;;;;;1929817;74;20240;-69
2021/09/18 06:25:18;;;;;;;;;;;14.30;99.90;;;;;;1929934;74;20151;-69
2021/09/18 06:27:44;;;;;;;;;;;14.30;99.90;;;;;;1930094;74;20116;-69
2021/09/18 06:30:12;;;;;;;;;;;14.30;99.90;;;;;;1926515;74;20201;-70
2021/09/18 06:32:38;;;;;;;;;;;14.40;99.90;;;;;;1942084;74;20130;-70
2021/09/18 06:35:05;;;;;;;;;;;14.40;99.90;;;;;;1942372;74;20171;-70
2021/09/18 06:37:32;;;;;;;;;;;14.40;99.90;;;;;;1942385;74;20206;-70
2021/09/18 06:39:59;;;;;;;;;;;14.40;99.90;;;;;;1942493;74;20444;-70
2021/09/18 06:42:26;;;;;;;;;;;14.50;99.90;;;;;;1909599;74;20173;-70
2021/09/18 06:44:52;;;;;;;;;;;14.50;99.90;;;;;;1908626;75;20122;-70
2021/09/18 06:47:19;;;;;;;;;;;14.50;99.90;;;;;;1908824;75;20169;-70
2021/09/18 06:49:46;;;;;;;;;;;14.50;99.90;;;;;;1908759;74;20162;-70
2021/09/18 06:52:13;;;;;;;;;;;14.50;99.90;;;;;;1909096;74;20196;-70
2021/09/18 06:54:41;;;;;;;;;;;14.50;99.90;;;;;;1908820;75;20185;-72
2021/09/18 06:57:11;;;;;;;;;;;14.60;99.90;;;;;;1908884;75;20181;-72
2021/09/18 06:59:36;;;;;;;;;;;14.60;99.90;;;;;;1908401;74;20184;-72
2021/09/18 07:02:03;;;;;;;;;;;14.70;99.90;;;;;;1908611;75;20160;-72
2021/09/18 07:04:30;;;;;;;;;;;14.70;99.90;;;;;;1908848;75;20166;-71
2021/09/18 07:06:57;;;;;;;;;;;14.70;99.90;;;;;;1908567;75;20162;-72
2021/09/18 07:09:23;;;;;;;;;;;14.70;99.90;;;;;;1916266;74;20182;-72
2021/09/18 07:11:50;;;;;;;;;;;14.70;99.90;;;;;;1930043;73;20186;-71
2021/09/18 07:14:17;;;;;;;;;;;14.70;99.90;;;;;;1930468;74;20204;-72
2021/09/18 07:16:44;;;;;;;;;;;14.80;99.90;;;;;;1915352;74;20184;-72
2021/09/18 07:19:11;;;;;;;;;;;14.90;99.90;;;;;;1913740;74;20165;-72
2021/09/18 07:21:37;;;;;;;;;;;15.00;99.90;;;;;;1908990;74;20169;-71
2021/09/18 07:24:07;;;;;;;;;;;14.90;99.90;;;;;;1908878;74;20119;-70
2021/09/18 07:26:34;;;;;;;;;;;15.00;99.90;;;;;;1908554;74;20197;-72
2021/09/18 07:29:01;;;;;;;;;;;15.00;99.90;;;;;;1922556;74;20209;-72
2021/09/18 07:31:29;;;;;;;;;;;15.00;99.90;;;;;;1920268;74;20108;-72
2021/09/18 07:33:55;;;;;;;;;;;15.10;99.90;;;;;;1930235;74;20444;-73
2021/09/18 07:36:22;;;;;;;;;;;15.10;99.90;;;;;;1923983;74;20155;-72
2021/09/18 07:38:49;;;;;;;;;;;15.20;99.90;;;;;;1932775;73;20241;-71
2021/09/18 07:41:16;;;;;;;;;;;15.10;99.90;;;;;;1914683;74;20188;-71
2021/09/18 07:43:43;;;;;;;;;;;15.10;99.90;;;;;;1917809;74;20478;-72
2021/09/18 07:46:10;;;;;;;;;;;15.20;99.90;;;;;;1908993;74;20451;-72
2021/09/18 07:48:37;;;;;;;;;;;15.20;99.90;;;;;;1855248;76;20155;-72
2021/09/18 07:51:04;;;;;;;;;;;15.20;99.90;;;;;;1832186;77;20495;-72
2021/09/18 07:53:30;;;;;;;;;;;15.20;99.90;;;;;;1878323;76;20132;-72
2021/09/18 07:55:57;;;;;;;;;;;15.20;99.90;;;;;;1859676;76;20517;-73
2021/09/18 07:58:24;;;;;;;;;;;15.20;99.90;;;;;;1858334;76;20209;-72
2021/09/18 08:00:51;;;;;;;;;;;15.20;99.90;;;;;;1881296;76;20390;-72
2021/09/18 08:03:19;;;;;;;;;;;15.20;99.90;;;;;;1881187;76;20168;-72
2021/09/18 08:05:46;;;;;;;;;;;15.30;99.90;;;;;;1881305;76;20192;-72
2021/09/18 08:08:13;;;;;;;;;;;15.20;99.90;;;;;;1861263;76;20197;-72
2021/09/18 08:10:40;;;;;;;;;;;15.30;99.90;;;;;;1855071;76;20189;-72
2021/09/18 08:13:06;;;;;;;;;;;15.40;99.90;;;;;;1854719;76;20197;-72
2021/09/18 08:15:33;;;;;;;;;;;15.40;99.90;;;;;;1854852;77;20126;-72
2021/09/18 08:18:00;;;;;;;;;;;15.50;99.90;;;;;;1855413;76;20423;-72
2021/09/18 08:20:27;;;;;;;;;;;15.40;99.90;;;;;;1854499;77;20146;-72
2021/09/18 08:22:54;;;;;;;;;;;15.50;99.90;;;;;;1856109;76;20233;-71
2021/09/18 08:25:21;;;;;;;;;;;15.50;99.90;;;;;;1861272;76;20451;-71
2021/09/18 08:27:47;;;;;;;;;;;15.60;99.90;;;;;;1879496;76;20124;-71
2021/09/18 08:30:14;;;;;;;;;;;15.60;99.90;;;;;;1881475;76;20225;-71
2021/09/18 08:32:42;;;;;;;;;;;15.70;99.90;;;;;;1880215;76;20109;-72
2021/09/18 08:35:09;;;;;;;;;;;15.70;99.90;;;;;;1880882;76;20164;-71
2021/09/18 08:37:35;;;;;;;;;;;15.80;99.90;;;;;;1862200;76;20394;-71
2021/09/18 08:40:03;;;;;;;;;;;15.80;99.90;;;;;;1880911;76;20202;-72
2021/09/18 08:42:30;;;;;;;;;;;15.90;99.90;;;;;;1881355;76;20222;-72
2021/09/18 08:44:56;;;;;;;;;;;15.90;99.90;;;;;;1880403;76;20538;-71
2021/09/18 08:47:24;;;;;;;;;;;15.90;99.90;;;;;;1864114;76;20462;-72
2021/09/18 08:49:51;;;;;;;;;;;16.10;99.90;;;;;;1860744;76;20290;-72
2021/09/18 08:52:18;;;;;;;;;;;16.20;99.90;;;;;;1863249;76;20131;-73
2021/09/18 08:54:45;;;;;;;;;;;16.20;99.90;;;;;;1866383;76;20188;-72
2021/09/18 08:57:12;;;;;;;;;;;16.20;99.90;;;;;;1868601;76;20175;-71
2021/09/18 08:59:39;;;;;;;;;;;16.40;99.90;;;;;;1855633;76;20185;-72
2021/09/18 09:02:10;;;;;;;;;;;16.40;99.90;;;;;;1864429;76;20452;-74
2021/09/18 09:04:37;;;;;;;;;;;16.50;99.90;;;;;;1867341;76;20212;-72
2021/09/18 09:07:04;;;;;;;;;;;16.50;99.90;;;;;;1860317;76;20185;-72
2021/09/18 09:09:32;;;;;;;;;;;16.50;99.90;;;;;;1864957;76;20167;-71
2021/09/18 09:11:59;;;;;;;;;;;16.60;99.90;;;;;;1834096;76;20231;-72
2021/09/18 09:14:27;;;;;;;;;;;16.60;99.90;;;;;;1856175;76;20207;-71
2021/09/18 09:17:08;;;;;;;;;;;16.70;99.90;;;;;;1856023;76;20174;-72
2021/09/18 09:19:39;;;;;;;;;;;16.60;99.90;;;;;;1864964;76;20146;-71
2021/09/18 09:22:06;;;;;;;;;;;16.60;99.90;;;;;;1881949;76;20229;-71
2021/09/18 09:24:33;;;;;;;;;;;16.60;99.90;;;;;;1861363;76;20167;-71
2021/09/18 09:27:13;;;;;;;;;;;16.60;99.90;;;;;;1858488;76;20494;-71
2021/09/18 09:29:47;;;;;;;;;;;16.70;99.90;;;;;;1872193;76;20171;-71
2021/09/18 09:32:28;;;;;;;;;;;16.60;99.90;;;;;;1854635;77;20165;-71
2021/09/18 09:34:55;;;;;;;;;;;16.70;99.90;;;;;;1856053;76;20170;-71
2021/09/18 09:37:23;;;;;;;;;;;16.80;99.90;;;;;;1855585;76;20173;-71
2021/09/18 09:39:51;;;;;;;;;;;16.80;99.90;;;;;;1855321;76;20177;-69
2021/09/18 09:42:19;;;;;;;;;;;16.90;99.90;;;;;;1854822;77;20179;-69
2021/09/18 09:44:46;;;;;;;;;;;16.80;99.90;;;;;;1867409;76;20278;-69
2021/09/18 09:47:14;;;;;;;;;;;16.80;99.90;;;;;;1861320;76;20472;-70
2021/09/18 09:49:45;;;;;;;;;;;16.90;99.90;;;;;;1859606;76;20130;-70
2021/09/18 09:52:20;;;;;;;;;;;16.90;99.90;;;;;;1862571;76;20169;-70
2021/09/18 09:54:47;;;;;;;;;;;16.90;99.90;;;;;;1861353;76;20181;-70
2021/09/18 09:57:14;;;;;;;;;;;17.00;99.90;;;;;;1876187;76;20483;-70
2021/09/18 09:59:41;;;;;;;;;;;17.00;99.90;;;;;;1871071;76;20182;-68
2021/09/18 10:02:09;;;;;;;;;;;17.00;99.90;;;;;;1877833;76;20122;-71
2021/09/18 10:04:36;;;;;;;;;;;16.90;99.90;;;;;;1856180;76;20199;-70
2021/09/18 10:07:03;;;;;;;;;;;17.00;99.90;;;;;;1854526;77;20170;-70
2021/09/18 10:09:31;;;;;;;;;;;17.00;99.90;;;;;;1881022;76;20201;-70
2021/09/18 10:11:58;;;;;;;;;;;17.00;99.90;;;;;;1864420;76;20161;-70
2021/09/18 10:14:26;;;;;;;;;;;17.10;99.90;;;;;;1855052;76;20166;-70
2021/09/18 10:16:56;;;;;;;;;;;17.10;99.90;;;;;;1859723;76;20515;-70
2021/09/18 10:20:09;;;;;;;;;;;17.20;99.90;;;;;;1863299;76;20134;-70
2021/09/18 10:24:37;;;;;;;;;;;17.30;99.90;;;;;;1856278;76;20212;-70
2021/09/18 10:27:17;;;;;;;;;;;17.30;99.90;;;;;;1859997;76;20185;-70
2021/09/18 10:29:44;;;;;;;;;;;17.30;99.90;;;;;;1854547;76;20195;-70
2021/09/18 10:32:11;;;;;;;;;;;17.30;99.90;;;;;;1880151;76;20163;-70
2021/09/18 10:34:38;;;;;;;;;;;17.30;99.90;;;;;;1886356;76;20252;-70
2021/09/18 10:37:05;;;;;;;;;;;17.40;99.90;;;;;;1883064;76;20124;-69
2021/09/18 10:39:32;;;;;;;;;;;17.30;99.90;;;;;;1855076;76;20204;-71
2021/09/18 10:42:01;;;;;;;;;;;17.30;99.90;;;;;;1857806;76;20231;-70
2021/09/18 10:44:47;;;;;;;;;;;17.30;99.90;;;;;;1877507;76;20177;-70
2021/09/18 10:47:32;;;;;;;;;;;17.30;99.90;;;;;;1872483;76;20183;-70
2021/09/18 10:49:59;;;;;;;;;;;17.30;99.90;;;;;;1874459;76;20113;-71
2021/09/18 10:52:31;;;;;;;;;;;17.30;99.90;;;;;;1876462;76;20507;-71
2021/09/18 10:55:05;;;;;;;;;;;17.30;99.90;;;;;;1872574;76;20155;-71
2021/09/18 10:57:45;;;;;;;;;;;17.30;99.90;;;;;;1863868;76;20305;-70
2021/09/18 11:00:08;;;;;;;;;;;17.30;99.90;;;;;;1852987;77;20121;-71
2021/09/18 11:02:37;;;;;;;;;;;17.30;99.90;;;;;;1855245;76;20122;-71
2021/09/18 11:05:08;;;;;;;;;;;17.40;99.90;;;;;;1856056;76;20376;-71
2021/09/18 11:07:42;;;;;;;;;;;17.30;99.90;;;;;;1854600;76;20185;-71
2021/09/18 11:10:13;;;;;;;;;;;17.30;99.90;;;;;;1853765;76;20189;-71
2021/09/18 11:12:40;;;;;;;;;;;17.30;99.90;;;;;;1861562;76;20226;-70
2021/09/18 11:15:08;;;;;;;;;;;17.20;99.90;;;;;;1866365;76;20442;-71
2021/09/18 11:17:37;;;;;;;;;;;17.20;99.90;;;;;;1879788;76;20180;-71
2021/09/18 11:20:17;;;;;;;;;;;17.20;99.90;;;;;;1879103;76;20198;-71
2021/09/18 11:22:44;;;;;;;;;;;17.20;99.90;;;;;;1867678;76;20409;-71
2021/09/18 11:25:31;;;;;;;;;;;17.20;99.90;;;;;;1855420;76;20989;-71
2021/09/18 11:28:05;;;;;;;;;;;17.30;99.90;;;;;;1859411;76;20166;-70
2021/09/18 11:30:42;;;;;;;;;;;17.30;99.90;;;;;;1869054;76;20229;-71
2021/09/18 11:33:10;;;;;;;;;;;17.40;99.90;;;;;;1855291;76;20508;-70
2021/09/18 11:35:38;;;;;;;;;;;17.40;99.90;;;;;;1878732;76;20508;-71
2021/09/18 11:38:05;;;;;;;;;;;17.40;99.90;;;;;;1870372;76;20411;-70
2021/09/18 11:40:34;;;;;;;;;;;17.40;99.90;;;;;;1854742;76;20126;-71
2021/09/18 11:43:01;;;;;;;;;;;17.40;99.90;;;;;;1865167;76;20178;-71
2021/09/18 11:45:29;;;;;;;;;;;17.40;99.90;;;;;;1884302;76;20171;-71
2021/09/18 11:47:57;;;;;;;;;;;17.50;99.90;;;;;;1855504;76;20169;-71
2021/09/18 11:50:26;;;;;;;;;;;17.50;99.90;;;;;;1859032;76;20161;-71
2021/09/18 11:52:54;;;;;;;;;;;17.50;99.90;;;;;;1872488;76;20249;-71
2021/09/18 11:55:31;;;;;;;;;;;17.50;99.90;;;;;;1866291;76;20175;-70
2021/09/18 11:58:09;;;;;;;;;;;17.50;99.90;;;;;;1870712;76;20413;-71
2021/09/18 12:00:37;;;;;;;;;;;17.50;99.90;;;;;;1881777;76;20214;-71
2021/09/18 12:03:03;;;;;;;;;;;17.60;99.90;;;;;;1856131;76;20554;-71
2021/09/18 12:05:30;;;;;;;;;;;17.60;99.90;;;;;;1854295;77;20193;-71
2021/09/18 12:07:57;;;;;;;;;;;17.60;99.90;;;;;;1860969;76;20162;-71
2021/09/18 12:10:24;;;;;;;;;;;17.70;99.90;;;;;;1861911;76;20255;-70
2021/09/18 12:12:54;;;;;;;;;;;17.80;99.90;;;;;;1854640;77;20157;-70
2021/09/18 12:15:31;;;;;;;;;;;17.90;99.90;;;;;;1855271;76;20301;-70
2021/09/18 12:17:58;;;;;;;;;;;18.10;99.90;;;;;;1867557;76;20132;-70
2021/09/18 12:20:24;;;;;;;;;;;18.10;99.90;;;;;;1881238;76;20301;-69
2021/09/18 12:22:51;;;;;;;;;;;18.10;99.90;;;;;;1869320;76;20472;-69
2021/09/18 12:25:20;;;;;;;;;;;18.10;99.90;;;;;;1855668;76;20185;-69
2021/09/18 12:27:48;;;;;;;;;;;18.10;99.90;;;;;;1856545;76;20166;-69
2021/09/18 12:30:15;;;;;;;;;;;18.10;99.90;;;;;;1854008;77;20199;-69
2021/09/18 12:32:42;;;;;;;;;;;18.20;99.90;;;;;;1879966;76;20124;-69
2021/09/18 12:35:10;;;;;;;;;;;18.20;99.90;;;;;;1876442;76;20263;-71
2021/09/18 12:37:39;;;;;;;;;;;18.20;99.90;;;;;;1855262;76;20115;-70
2021/09/18 12:40:14;;;;;;;;;;;18.20;99.90;;;;;;1876025;76;20127;-70
2021/09/18 12:42:41;;;;;;;;;;;18.20;99.90;;;;;;1870694;76;20197;-70
2021/09/18 12:45:21;;;;;;;;;;;18.30;99.90;;;;;;1860442;76;20209;-70
2021/09/18 12:47:48;;;;;;;;;;;18.30;99.90;;;;;;1871640;76;20495;-71
2021/09/18 12:50:17;;;;;;;;;;;18.30;99.90;;;;;;1886730;76;20183;-71
2021/09/18 12:52:44;;;;;;;;;;;18.20;99.90;;;;;;1859500;76;20122;-72
2021/09/18 12:55:10;;;;;;;;;;;18.20;99.90;;;;;;1855024;76;20169;-70
2021/09/18 12:57:37;;;;;;;;;;;18.20;99.90;;;;;;1869575;76;20171;-71
2021/09/18 13:00:08;;;;;;;;;;;18.20;99.90;;;;;;1868912;76;20235;-71
2021/09/18 13:02:35;;;;;;;;;;;18.20;99.90;;;;;;1872305;76;20274;-71
2021/09/18 13:05:03;;;;;;;;;;;18.30;99.90;;;;;;1859056;76;20181;-70
2021/09/18 13:07:30;;;;;;;;;;;19.00;99.90;;;;;;1854755;76;20439;-70
2021/09/18 13:09:58;;;;;;;;;;;19.80;99.90;;;;;;1870153;76;20462;-70
2021/09/18 13:12:25;;;;;;;;;;;20.20;99.90;;;;;;1881056;76;20863;-70
2021/09/18 13:14:53;;;;;;;;;;;20.80;99.90;;;;;;1875207;76;20274;-70
2021/09/18 13:17:22;;;;;;;;;;;21.20;99.90;;;;;;1872937;76;20445;-71
2021/09/18 13:19:56;;;;;;;;;;;21.40;99.90;;;;;;1881574;76;20209;-71
2021/09/18 13:22:25;;;;;;;;;;;21.30;99.90;;;;;;1881411;76;20171;-70
2021/09/18 13:24:52;;;;;;;;;;;21.10;99.90;;;;;;1881155;76;20172;-70
2021/09/18 13:27:20;;;;;;;;;;;20.70;99.90;;;;;;1881464;76;20817;-71
2021/09/18 13:29:47;;;;;;;;;;;20.40;99.90;;;;;;1880993;76;20402;-70
2021/09/18 13:32:14;;;;;;;;;;;20.10;99.90;;;;;;1855691;76;20470;-70
2021/09/18 13:34:42;;;;;;;;;;;19.90;99.90;;;;;;1854463;77;20111;-70
2021/09/18 13:37:08;;;;;;;;;;;19.70;99.90;;;;;;1854695;77;20169;-70
2021/09/18 13:39:35;;;;;;;;;;;19.50;99.90;;;;;;1854699;77;20211;-70
2021/09/18 13:42:02;;;;;;;;;;;19.40;99.90;;;;;;1861270;76;20156;-69
2021/09/18 13:44:29;;;;;;;;;;;19.20;99.90;;;;;;1872389;76;20127;-70
2021/09/18 13:46:56;;;;;;;;;;;19.20;99.90;;;;;;1866520;76;20214;-70
2021/09/18 13:49:23;;;;;;;;;;;19.00;99.90;;;;;;1872253;76;20124;-70
2021/09/18 13:51:50;;;;;;;;;;;18.90;99.90;;;;;;1886300;76;20347;-70
2021/09/18 13:54:16;;;;;;;;;;;18.80;99.90;;;;;;1886745;76;20492;-70
2021/09/18 13:56:43;;;;;;;;;;;18.80;99.90;;;;;;1886545;76;20124;-70
2021/09/18 13:59:10;;;;;;;;;;;18.70;99.90;;;;;;1886678;76;20464;-70
2021/09/18 14:01:37;;;;;;;;;;;18.60;99.90;;;;;;1879206;76;20158;-70
2021/09/18 14:04:05;;;;;;;;;;;18.60;99.90;;;;;;1881355;76;20167;-70
2021/09/18 14:06:31;;;;;;;;;;;18.50;99.90;;;;;;1856378;76;20274;-71
2021/09/18 14:08:58;;;;;;;;;;;18.50;99.90;;;;;;1854482;77;20375;-70
2021/09/18 14:11:25;;;;;;;;;;;18.40;99.90;;;;;;1854971;77;20177;-69
2021/09/18 14:13:52;;;;;;;;;;;18.40;99.90;;;;;;1854904;77;20169;-70
2021/09/18 14:16:19;;;;;;;;;;;18.40;99.90;;;;;;1854642;77;20161;-70
2021/09/18 14:18:46;;;;;;;;;;;18.30;99.90;;;;;;1877116;76;20362;-70
2021/09/18 14:21:14;;;;;;;;;;;18.30;99.90;;;;;;1881690;76;20171;-70